sensor_id;sensor_type;location;lat;lon;timestamp;P1;durP1;ratioP1;P2;durP2;ratioP2
37645;SDS011;23489;49.600;6.138;2023-02-15T00:00:52;43.92;;;26.15;;
37645;SDS011;23489;49.600;6.138;2023-02-15T00:03:20;42.37;;;22.27;;
37645;SDS011;23489;49.600;6.138;2023-02-15T00:05:46;33.57;;;19.83;;
37645;SDS011;23489;49.600;6.138;2023-02-15T00:08:12;39.67;;;20.17;;
37645;SDS011;23489;49.600;6.138;2023-02-15T00:10:37;35.97;;;20.03;;
37645;SDS011;23489;49.600;6.138;2023-02-15T00:13:03;35.73;;;20.27;;
37645;SDS011;23489;49.600;6.138;2023-02-15T00:15:29;36.03;;;18.33;;
37645;SDS011;23489;49.600;6.138;2023-02-15T00:17:56;38.63;;;20.43;;
37645;SDS011;23489;49.600;6.138;2023-02-15T00:20:22;36.73;;;18.67;;
37645;SDS011;23489;49.600;6.138;2023-02-15T00:22:48;40.13;;;20.00;;
37645;SDS011;23489;49.600;6.138;2023-02-15T00:25:13;36.53;;;18.43;;
37645;SDS011;23489;49.600;6.138;2023-02-15T00:27:39;36.43;;;19.10;;
37645;SDS011;23489;49.600;6.138;2023-02-15T00:30:04;39.07;;;20.37;;
37645;SDS011;23489;49.600;6.138;2023-02-15T00:32:31;39.90;;;19.33;;
37645;SDS011;23489;49.600;6.138;2023-02-15T00:34:57;38.37;;;19.80;;
37645;SDS011;23489;49.600;6.138;2023-02-15T00:37:23;37.50;;;20.53;;
37645;SDS011;23489;49.600;6.138;2023-02-15T00:39:48;37.70;;;20.20;;
37645;SDS011;23489;49.600;6.138;2023-02-15T00:42:16;37.17;;;19.40;;
37645;SDS011;23489;49.600;6.138;2023-02-15T00:44:41;35.10;;;19.73;;
37645;SDS011;23489;49.600;6.138;2023-02-15T00:47:07;36.27;;;19.63;;
37645;SDS011;23489;49.600;6.138;2023-02-15T00:49:32;38.00;;;19.00;;
37645;SDS011;23489;49.600;6.138;2023-02-15T00:51:58;41.30;;;20.70;;
37645;SDS011;23489;49.600;6.138;2023-02-15T00:54:24;39.90;;;20.20;;
37645;SDS011;23489;49.600;6.138;2023-02-15T00:56:49;39.93;;;20.17;;
37645;SDS011;23489;49.600;6.138;2023-02-15T00:59:15;39.27;;;20.63;;
37645;SDS011;23489;49.600;6.138;2023-02-15T01:01:40;39.80;;;20.30;;
37645;SDS011;23489;49.600;6.138;2023-02-15T01:04:06;41.07;;;20.37;;
37645;SDS011;23489;49.600;6.138;2023-02-15T01:06:32;41.07;;;21.27;;
37645;SDS011;23489;49.600;6.138;2023-02-15T01:08:58;36.33;;;19.50;;
37645;SDS011;23489;49.600;6.138;2023-02-15T01:11:24;42.53;;;19.90;;
37645;SDS011;23489;49.600;6.138;2023-02-15T01:13:50;36.13;;;19.03;;
37645;SDS011;23489;49.600;6.138;2023-02-15T01:16:18;39.50;;;20.53;;
37645;SDS011;23489;49.600;6.138;2023-02-15T01:18:44;41.17;;;21.13;;
37645;SDS011;23489;49.600;6.138;2023-02-15T01:21:15;33.17;;;19.00;;
37645;SDS011;23489;49.600;6.138;2023-02-15T01:23:43;37.40;;;19.13;;
37645;SDS011;23489;49.600;6.138;2023-02-15T01:26:11;36.30;;;19.80;;
37645;SDS011;23489;49.600;6.138;2023-02-15T01:28:37;38.37;;;19.07;;
37645;SDS011;23489;49.600;6.138;2023-02-15T01:31:07;36.70;;;20.57;;
37645;SDS011;23489;49.600;6.138;2023-02-15T01:33:34;35.17;;;19.33;;
37645;SDS011;23489;49.600;6.138;2023-02-15T01:36:01;35.23;;;18.90;;
37645;SDS011;23489;49.600;6.138;2023-02-15T01:38:27;38.33;;;20.23;;
37645;SDS011;23489;49.600;6.138;2023-02-15T01:40:53;39.00;;;19.53;;
37645;SDS011;23489;49.600;6.138;2023-02-15T01:43:40;36.33;;;19.93;;
37645;SDS011;23489;49.600;6.138;2023-02-15T01:46:07;35.67;;;19.50;;
37645;SDS011;23489;49.600;6.138;2023-02-15T01:48:36;45.20;;;20.47;;
37645;SDS011;23489;49.600;6.138;2023-02-15T01:51:05;35.33;;;19.07;;
37645;SDS011;23489;49.600;6.138;2023-02-15T01:53:34;39.90;;;19.23;;
37645;SDS011;23489;49.600;6.138;2023-02-15T01:56:15;36.37;;;18.93;;
37645;SDS011;23489;49.600;6.138;2023-02-15T01:58:47;36.57;;;19.23;;
37645;SDS011;23489;49.600;6.138;2023-02-15T02:01:17;33.77;;;19.07;;
37645;SDS011;23489;49.600;6.138;2023-02-15T02:06:40;32.77;;;18.20;;
37645;SDS011;23489;49.600;6.138;2023-02-15T02:09:06;33.73;;;19.10;;
37645;SDS011;23489;49.600;6.138;2023-02-15T02:11:32;34.53;;;18.73;;
37645;SDS011;23489;49.600;6.138;2023-02-15T02:13:59;34.70;;;18.97;;
37645;SDS011;23489;49.600;6.138;2023-02-15T02:16:30;36.57;;;18.53;;
37645;SDS011;23489;49.600;6.138;2023-02-15T02:27:28;35.90;;;18.07;;
37645;SDS011;23489;49.600;6.138;2023-02-15T02:30:06;40.77;;;19.23;;
37645;SDS011;23489;49.600;6.138;2023-02-15T02:32:54;34.70;;;18.13;;
37645;SDS011;23489;49.600;6.138;2023-02-15T02:35:56;36.07;;;17.57;;
37645;SDS011;23489;49.600;6.138;2023-02-15T02:43:38;34.37;;;18.33;;
37645;SDS011;23489;49.600;6.138;2023-02-15T02:46:32;41.53;;;19.10;;
37645;SDS011;23489;49.600;6.138;2023-02-15T02:49:09;34.67;;;18.27;;
37645;SDS011;23489;49.600;6.138;2023-02-15T02:51:34;36.70;;;19.93;;
37645;SDS011;23489;49.600;6.138;2023-02-15T02:54:00;36.23;;;19.43;;
37645;SDS011;23489;49.600;6.138;2023-02-15T02:56:33;36.77;;;19.23;;
37645;SDS011;23489;49.600;6.138;2023-02-15T02:59:21;37.87;;;17.93;;
37645;SDS011;23489;49.600;6.138;2023-02-15T03:01:51;34.40;;;18.73;;
37645;SDS011;23489;49.600;6.138;2023-02-15T03:04:28;38.03;;;18.93;;
37645;SDS011;23489;49.600;6.138;2023-02-15T03:06:58;35.63;;;18.63;;
37645;SDS011;23489;49.600;6.138;2023-02-15T03:09:29;36.83;;;19.87;;
37645;SDS011;23489;49.600;6.138;2023-02-15T03:12:13;35.17;;;19.50;;
37645;SDS011;23489;49.600;6.138;2023-02-15T03:14:44;38.43;;;19.00;;
37645;SDS011;23489;49.600;6.138;2023-02-15T03:17:13;37.60;;;18.97;;
37645;SDS011;23489;49.600;6.138;2023-02-15T03:19:40;39.90;;;20.60;;
37645;SDS011;23489;49.600;6.138;2023-02-15T03:22:16;37.30;;;18.27;;
37645;SDS011;23489;49.600;6.138;2023-02-15T03:24:51;39.47;;;18.47;;
37645;SDS011;23489;49.600;6.138;2023-02-15T03:27:25;35.77;;;18.73;;
37645;SDS011;23489;49.600;6.138;2023-02-15T03:29:56;35.57;;;19.37;;
37645;SDS011;23489;49.600;6.138;2023-02-15T03:32:24;34.87;;;18.07;;
37645;SDS011;23489;49.600;6.138;2023-02-15T03:34:53;39.43;;;19.67;;
37645;SDS011;23489;49.600;6.138;2023-02-15T03:37:24;42.17;;;20.97;;
37645;SDS011;23489;49.600;6.138;2023-02-15T03:40:09;38.10;;;18.90;;
37645;SDS011;23489;49.600;6.138;2023-02-15T03:43:19;37.03;;;19.20;;
37645;SDS011;23489;49.600;6.138;2023-02-15T03:45:56;37.73;;;18.53;;
37645;SDS011;23489;49.600;6.138;2023-02-15T03:48:29;42.33;;;19.27;;
37645;SDS011;23489;49.600;6.138;2023-02-15T03:51:01;37.63;;;20.33;;
37645;SDS011;23489;49.600;6.138;2023-02-15T03:53:52;35.20;;;18.27;;
37645;SDS011;23489;49.600;6.138;2023-02-15T03:56:20;36.53;;;18.20;;
37645;SDS011;23489;49.600;6.138;2023-02-15T03:58:45;36.40;;;17.73;;
37645;SDS011;23489;49.600;6.138;2023-02-15T04:01:33;34.30;;;18.37;;
37645;SDS011;23489;49.600;6.138;2023-02-15T04:04:23;37.83;;;17.90;;
37645;SDS011;23489;49.600;6.138;2023-02-15T04:07:00;40.53;;;18.47;;
37645;SDS011;23489;49.600;6.138;2023-02-15T04:09:26;32.17;;;17.83;;
37645;SDS011;23489;49.600;6.138;2023-02-15T04:12:11;37.03;;;18.73;;
37645;SDS011;23489;49.600;6.138;2023-02-15T04:14:37;36.33;;;18.67;;
37645;SDS011;23489;49.600;6.138;2023-02-15T04:17:21;32.50;;;17.80;;
37645;SDS011;23489;49.600;6.138;2023-02-15T04:19:47;33.47;;;17.63;;
37645;SDS011;23489;49.600;6.138;2023-02-15T04:22:31;33.47;;;17.33;;
37645;SDS011;23489;49.600;6.138;2023-02-15T04:25:15;30.93;;;18.03;;
37645;SDS011;23489;49.600;6.138;2023-02-15T04:27:45;35.00;;;17.67;;
37645;SDS011;23489;49.600;6.138;2023-02-15T04:30:13;36.63;;;18.90;;
37645;SDS011;23489;49.600;6.138;2023-02-15T04:32:40;31.97;;;18.50;;
37645;SDS011;23489;49.600;6.138;2023-02-15T04:35:06;33.70;;;18.80;;
37645;SDS011;23489;49.600;6.138;2023-02-15T04:37:33;36.60;;;18.70;;
37645;SDS011;23489;49.600;6.138;2023-02-15T04:39:58;32.83;;;17.97;;
37645;SDS011;23489;49.600;6.138;2023-02-15T04:42:24;35.70;;;18.30;;
37645;SDS011;23489;49.600;6.138;2023-02-15T04:44:51;37.97;;;19.07;;
37645;SDS011;23489;49.600;6.138;2023-02-15T04:47:17;37.10;;;18.90;;
37645;SDS011;23489;49.600;6.138;2023-02-15T04:49:43;39.30;;;19.77;;
37645;SDS011;23489;49.600;6.138;2023-02-15T04:52:08;33.43;;;17.97;;
37645;SDS011;23489;49.600;6.138;2023-02-15T04:54:34;38.70;;;19.93;;
37645;SDS011;23489;49.600;6.138;2023-02-15T04:57:00;37.00;;;18.57;;
37645;SDS011;23489;49.600;6.138;2023-02-15T04:59:26;34.87;;;18.77;;
37645;SDS011;23489;49.600;6.138;2023-02-15T05:01:52;38.07;;;18.90;;
37645;SDS011;23489;49.600;6.138;2023-02-15T05:04:18;39.10;;;19.23;;
37645;SDS011;23489;49.600;6.138;2023-02-15T05:06:43;40.10;;;20.03;;
37645;SDS011;23489;49.600;6.138;2023-02-15T05:09:10;40.03;;;20.80;;
37645;SDS011;23489;49.600;6.138;2023-02-15T05:11:36;40.47;;;18.87;;
37645;SDS011;23489;49.600;6.138;2023-02-15T05:14:02;40.53;;;19.93;;
37645;SDS011;23489;49.600;6.138;2023-02-15T05:16:27;37.27;;;19.40;;
37645;SDS011;23489;49.600;6.138;2023-02-15T05:18:53;41.00;;;18.97;;
37645;SDS011;23489;49.600;6.138;2023-02-15T05:21:19;41.20;;;20.43;;
37645;SDS011;23489;49.600;6.138;2023-02-15T05:23:45;44.60;;;21.40;;
37645;SDS011;23489;49.600;6.138;2023-02-15T05:26:11;39.60;;;19.77;;
37645;SDS011;23489;49.600;6.138;2023-02-15T05:29:01;38.43;;;20.53;;
37645;SDS011;23489;49.600;6.138;2023-02-15T05:31:26;37.73;;;19.10;;
37645;SDS011;23489;49.600;6.138;2023-02-15T05:33:52;43.80;;;20.27;;
37645;SDS011;23489;49.600;6.138;2023-02-15T05:36:18;40.00;;;20.60;;
37645;SDS011;23489;49.600;6.138;2023-02-15T05:38:43;41.67;;;19.73;;
37645;SDS011;23489;49.600;6.138;2023-02-15T05:41:09;42.83;;;19.93;;
37645;SDS011;23489;49.600;6.138;2023-02-15T05:43:36;40.43;;;19.77;;
37645;SDS011;23489;49.600;6.138;2023-02-15T05:46:02;44.47;;;20.43;;
37645;SDS011;23489;49.600;6.138;2023-02-15T05:48:28;46.30;;;20.27;;
37645;SDS011;23489;49.600;6.138;2023-02-15T05:51:01;44.97;;;21.57;;
37645;SDS011;23489;49.600;6.138;2023-02-15T05:53:29;43.87;;;20.13;;
37645;SDS011;23489;49.600;6.138;2023-02-15T05:55:56;44.87;;;20.07;;
37645;SDS011;23489;49.600;6.138;2023-02-15T05:58:25;45.47;;;20.97;;
37645;SDS011;23489;49.600;6.138;2023-02-15T06:00:52;44.60;;;20.53;;
37645;SDS011;23489;49.600;6.138;2023-02-15T06:03:17;40.30;;;18.77;;
37645;SDS011;23489;49.600;6.138;2023-02-15T06:05:43;45.20;;;20.00;;
37645;SDS011;23489;49.600;6.138;2023-02-15T06:08:09;46.07;;;22.10;;
37645;SDS011;23489;49.600;6.138;2023-02-15T06:10:34;43.83;;;20.73;;
37645;SDS011;23489;49.600;6.138;2023-02-15T06:13:00;45.27;;;19.80;;
37645;SDS011;23489;49.600;6.138;2023-02-15T06:15:26;47.10;;;20.20;;
37645;SDS011;23489;49.600;6.138;2023-02-15T06:17:51;55.30;;;19.80;;
37645;SDS011;23489;49.600;6.138;2023-02-15T06:20:17;45.00;;;19.43;;
37645;SDS011;23489;49.600;6.138;2023-02-15T06:22:43;42.73;;;18.90;;
37645;SDS011;23489;49.600;6.138;2023-02-15T06:25:08;46.43;;;19.30;;
37645;SDS011;23489;49.600;6.138;2023-02-15T06:27:36;41.30;;;19.53;;
37645;SDS011;23489;49.600;6.138;2023-02-15T06:30:03;41.30;;;19.93;;
37645;SDS011;23489;49.600;6.138;2023-02-15T06:32:31;41.90;;;17.63;;
37645;SDS011;23489;49.600;6.138;2023-02-15T06:34:57;40.87;;;18.37;;
37645;SDS011;23489;49.600;6.138;2023-02-15T06:37:22;39.53;;;18.30;;
37645;SDS011;23489;49.600;6.138;2023-02-15T06:39:48;41.43;;;18.47;;
37645;SDS011;23489;49.600;6.138;2023-02-15T06:42:13;46.90;;;18.50;;
37645;SDS011;23489;49.600;6.138;2023-02-15T06:44:39;42.33;;;16.87;;
37645;SDS011;23489;49.600;6.138;2023-02-15T06:47:04;53.50;;;19.80;;
37645;SDS011;23489;49.600;6.138;2023-02-15T06:49:30;37.83;;;17.20;;
37645;SDS011;23489;49.600;6.138;2023-02-15T06:51:56;43.90;;;19.30;;
37645;SDS011;23489;49.600;6.138;2023-02-15T06:54:22;40.47;;;18.13;;
37645;SDS011;23489;49.600;6.138;2023-02-15T06:56:47;44.23;;;18.80;;
37645;SDS011;23489;49.600;6.138;2023-02-15T06:59:13;47.10;;;20.23;;
37645;SDS011;23489;49.600;6.138;2023-02-15T07:01:38;42.60;;;17.87;;
37645;SDS011;23489;49.600;6.138;2023-02-15T07:04:04;44.00;;;19.10;;
37645;SDS011;23489;49.600;6.138;2023-02-15T07:06:33;43.63;;;17.43;;
37645;SDS011;23489;49.600;6.138;2023-02-15T07:08:58;41.77;;;17.93;;
37645;SDS011;23489;49.600;6.138;2023-02-15T07:11:25;44.17;;;17.20;;
37645;SDS011;23489;49.600;6.138;2023-02-15T07:14:09;48.03;;;18.27;;
37645;SDS011;23489;49.600;6.138;2023-02-15T07:16:35;37.30;;;15.60;;
37645;SDS011;23489;49.600;6.138;2023-02-15T07:19:00;37.37;;;16.40;;
37645;SDS011;23489;49.600;6.138;2023-02-15T07:21:26;39.43;;;15.40;;
37645;SDS011;23489;49.600;6.138;2023-02-15T07:23:55;34.20;;;15.30;;
37645;SDS011;23489;49.600;6.138;2023-02-15T07:26:22;42.13;;;15.37;;
37645;SDS011;23489;49.600;6.138;2023-02-15T07:28:48;37.57;;;15.23;;
37645;SDS011;23489;49.600;6.138;2023-02-15T07:31:14;35.90;;;15.30;;
37645;SDS011;23489;49.600;6.138;2023-02-15T07:33:39;29.67;;;14.43;;
37645;SDS011;23489;49.600;6.138;2023-02-15T07:36:05;35.77;;;15.23;;
37645;SDS011;23489;49.600;6.138;2023-02-15T07:38:35;37.97;;;14.53;;
37645;SDS011;23489;49.600;6.138;2023-02-15T07:41:05;39.43;;;15.27;;
37645;SDS011;23489;49.600;6.138;2023-02-15T07:43:33;49.87;;;14.37;;
37645;SDS011;23489;49.600;6.138;2023-02-15T07:46:01;42.97;;;14.10;;
37645;SDS011;23489;49.600;6.138;2023-02-15T07:48:29;38.27;;;13.47;;
37645;SDS011;23489;49.600;6.138;2023-02-15T07:50:58;30.27;;;14.27;;
37645;SDS011;23489;49.600;6.138;2023-02-15T07:53:25;65.80;;;14.20;;
37645;SDS011;23489;49.600;6.138;2023-02-15T07:55:50;62.57;;;14.70;;
37645;SDS011;23489;49.600;6.138;2023-02-15T07:58:17;57.63;;;14.00;;
37645;SDS011;23489;49.600;6.138;2023-02-15T08:00:43;70.60;;;13.50;;
37645;SDS011;23489;49.600;6.138;2023-02-15T08:03:24;89.47;;;15.33;;
37645;SDS011;23489;49.600;6.138;2023-02-15T08:05:58;71.33;;;16.23;;
37645;SDS011;23489;49.600;6.138;2023-02-15T08:08:25;89.03;;;16.37;;
37645;SDS011;23489;49.600;6.138;2023-02-15T08:11:01;65.33;;;15.90;;
37645;SDS011;23489;49.600;6.138;2023-02-15T08:13:50;56.80;;;15.73;;
37645;SDS011;23489;49.600;6.138;2023-02-15T08:16:30;101.07;;;17.20;;
37645;SDS011;23489;49.600;6.138;2023-02-15T08:19:09;110.37;;;16.47;;
37645;SDS011;23489;49.600;6.138;2023-02-15T08:21:47;63.03;;;16.27;;
37645;SDS011;23489;49.600;6.138;2023-02-15T08:24:19;44.07;;;15.63;;
37645;SDS011;23489;49.600;6.138;2023-02-15T08:26:46;83.50;;;18.23;;
37645;SDS011;23489;49.600;6.138;2023-02-15T08:29:13;54.97;;;17.10;;
37645;SDS011;23489;49.600;6.138;2023-02-15T08:31:40;116.93;;;20.00;;
37645;SDS011;23489;49.600;6.138;2023-02-15T08:34:07;87.50;;;18.70;;
37645;SDS011;23489;49.600;6.138;2023-02-15T08:36:34;62.57;;;17.90;;
37645;SDS011;23489;49.600;6.138;2023-02-15T08:39:00;64.47;;;20.53;;
37645;SDS011;23489;49.600;6.138;2023-02-15T08:41:29;89.93;;;19.83;;
37645;SDS011;23489;49.600;6.138;2023-02-15T08:43:58;63.50;;;19.30;;
37645;SDS011;23489;49.600;6.138;2023-02-15T08:46:27;99.63;;;21.20;;
37645;SDS011;23489;49.600;6.138;2023-02-15T08:48:54;78.80;;;21.83;;
37645;SDS011;23489;49.600;6.138;2023-02-15T08:51:24;64.97;;;21.80;;
37645;SDS011;23489;49.600;6.138;2023-02-15T08:53:52;66.30;;;21.73;;
37645;SDS011;23489;49.600;6.138;2023-02-15T08:56:24;84.67;;;19.67;;
37645;SDS011;23489;49.600;6.138;2023-02-15T08:58:54;63.80;;;20.73;;
37645;SDS011;23489;49.600;6.138;2023-02-15T09:01:21;52.93;;;20.20;;
37645;SDS011;23489;49.600;6.138;2023-02-15T09:03:49;52.80;;;19.87;;
37645;SDS011;23489;49.600;6.138;2023-02-15T09:06:20;52.27;;;21.23;;
37645;SDS011;23489;49.600;6.138;2023-02-15T09:08:47;58.83;;;20.23;;
37645;SDS011;23489;49.600;6.138;2023-02-15T09:13:55;49.47;;;19.57;;
37645;SDS011;23489;49.600;6.138;2023-02-15T09:16:22;55.13;;;21.80;;
37645;SDS011;23489;49.600;6.138;2023-02-15T09:18:49;54.47;;;20.80;;
37645;SDS011;23489;49.600;6.138;2023-02-15T09:21:16;59.30;;;20.40;;
37645;SDS011;23489;49.600;6.138;2023-02-15T09:23:45;50.30;;;20.53;;
37645;SDS011;23489;49.600;6.138;2023-02-15T09:26:13;63.40;;;18.97;;
37645;SDS011;23489;49.600;6.138;2023-02-15T09:28:40;45.77;;;18.20;;
37645;SDS011;23489;49.600;6.138;2023-02-15T09:33:37;58.60;;;20.00;;
37645;SDS011;23489;49.600;6.138;2023-02-15T09:36:04;46.72;;;19.77;;
37645;SDS011;23489;49.600;6.138;2023-02-15T09:38:30;53.47;;;20.47;;
37645;SDS011;23489;49.600;6.138;2023-02-15T09:41:03;75.57;;;21.47;;
37645;SDS011;23489;49.600;6.138;2023-02-15T09:52:33;48.60;;;20.00;;
37645;SDS011;23489;49.600;6.138;2023-02-15T10:06:49;49.53;;;20.30;;
37645;SDS011;23489;49.600;6.138;2023-02-15T10:17:31;41.77;;;19.67;;
37645;SDS011;23489;49.600;6.138;2023-02-15T10:28:09;51.27;;;21.63;;
37645;SDS011;23489;49.600;6.138;2023-02-15T10:30:46;44.93;;;20.93;;
37645;SDS011;23489;49.600;6.138;2023-02-15T10:33:22;45.67;;;20.93;;
37645;SDS011;23489;49.600;6.138;2023-02-15T10:36:07;44.05;;;20.92;;
37645;SDS011;23489;49.600;6.138;2023-02-15T10:42:20;47.13;;;22.00;;
37645;SDS011;23489;49.600;6.138;2023-02-15T10:52:49;48.08;;;22.08;;
37645;SDS011;23489;49.600;6.138;2023-02-15T10:55:36;42.50;;;19.85;;
37645;SDS011;23489;49.600;6.138;2023-02-15T11:06:29;43.33;;;21.83;;
37645;SDS011;23489;49.600;6.138;2023-02-15T11:09:00;39.78;;;21.35;;
37645;SDS011;23489;49.600;6.138;2023-02-15T11:11:31;43.67;;;21.70;;
37645;SDS011;23489;49.600;6.138;2023-02-15T11:14:02;37.35;;;18.63;;
37645;SDS011;23489;49.600;6.138;2023-02-15T11:16:38;33.70;;;18.38;;
37645;SDS011;23489;49.600;6.138;2023-02-15T11:19:19;35.45;;;20.10;;
37645;SDS011;23489;49.600;6.138;2023-02-15T11:21:55;32.65;;;18.20;;
37645;SDS011;23489;49.600;6.138;2023-02-15T11:24:25;31.67;;;17.42;;
37645;SDS011;23489;49.600;6.138;2023-02-15T11:27:00;36.03;;;18.45;;
37645;SDS011;23489;49.600;6.138;2023-02-15T11:29:52;29.95;;;17.08;;
37645;SDS011;23489;49.600;6.138;2023-02-15T11:32:35;29.10;;;17.27;;
37645;SDS011;23489;49.600;6.138;2023-02-15T11:35:10;29.20;;;16.63;;
37645;SDS011;23489;49.600;6.138;2023-02-15T11:38:00;30.52;;;17.50;;
37645;SDS011;23489;49.600;6.138;2023-02-15T11:40:34;29.92;;;17.38;;
37645;SDS011;23489;49.600;6.138;2023-02-15T11:43:16;30.25;;;17.73;;
37645;SDS011;23489;49.600;6.138;2023-02-15T11:45:52;28.70;;;16.48;;
37645;SDS011;23489;49.600;6.138;2023-02-15T11:48:19;32.28;;;18.30;;
37645;SDS011;23489;49.600;6.138;2023-02-15T11:50:45;31.35;;;17.08;;
37645;SDS011;23489;49.600;6.138;2023-02-15T11:55:44;31.52;;;17.02;;
37645;SDS011;23489;49.600;6.138;2023-02-15T12:03:52;30.65;;;16.77;;
37645;SDS011;23489;49.600;6.138;2023-02-15T12:06:46;31.25;;;16.33;;
37645;SDS011;23489;49.600;6.138;2023-02-15T12:09:33;31.20;;;17.42;;
37645;SDS011;23489;49.600;6.138;2023-02-15T12:14:54;26.40;;;16.08;;
37645;SDS011;23489;49.600;6.138;2023-02-15T12:17:23;29.58;;;16.55;;
37645;SDS011;23489;49.600;6.138;2023-02-15T12:19:57;30.88;;;16.77;;
37645;SDS011;23489;49.600;6.138;2023-02-15T12:22:53;30.20;;;16.23;;
37645;SDS011;23489;49.600;6.138;2023-02-15T12:25:42;28.88;;;15.50;;
37645;SDS011;23489;49.600;6.138;2023-02-15T12:28:23;29.52;;;17.33;;
37645;SDS011;23489;49.600;6.138;2023-02-15T12:30:53;32.25;;;17.63;;
37645;SDS011;23489;49.600;6.138;2023-02-15T12:33:41;29.67;;;15.45;;
37645;SDS011;23489;49.600;6.138;2023-02-15T12:41:38;28.45;;;16.17;;
37645;SDS011;23489;49.600;6.138;2023-02-15T12:44:23;26.75;;;15.65;;
37645;SDS011;23489;49.600;6.138;2023-02-15T12:46:55;28.50;;;15.85;;
37645;SDS011;23489;49.600;6.138;2023-02-15T12:49:28;32.38;;;16.10;;
37645;SDS011;23489;49.600;6.138;2023-02-15T12:51:56;30.88;;;16.92;;
37645;SDS011;23489;49.600;6.138;2023-02-15T12:54:27;31.27;;;15.73;;
37645;SDS011;23489;49.600;6.138;2023-02-15T12:59:49;30.40;;;17.42;;
37645;SDS011;23489;49.600;6.138;2023-02-15T13:02:53;30.52;;;16.95;;
37645;SDS011;23489;49.600;6.138;2023-02-15T13:05:40;29.65;;;15.63;;
37645;SDS011;23489;49.600;6.138;2023-02-15T13:08:12;28.65;;;15.77;;
37645;SDS011;23489;49.600;6.138;2023-02-15T13:10:51;29.20;;;15.82;;
37645;SDS011;23489;49.600;6.138;2023-02-15T13:13:28;30.80;;;16.10;;
37645;SDS011;23489;49.600;6.138;2023-02-15T13:15:58;28.02;;;17.00;;
37645;SDS011;23489;49.600;6.138;2023-02-15T13:18:31;30.52;;;16.15;;
37645;SDS011;23489;49.600;6.138;2023-02-15T13:21:09;27.83;;;16.23;;
37645;SDS011;23489;49.600;6.138;2023-02-15T13:23:36;28.05;;;15.68;;
37645;SDS011;23489;49.600;6.138;2023-02-15T13:26:04;30.38;;;16.77;;
37645;SDS011;23489;49.600;6.138;2023-02-15T13:28:38;30.25;;;16.77;;
37645;SDS011;23489;49.600;6.138;2023-02-15T13:31:14;26.98;;;16.55;;
37645;SDS011;23489;49.600;6.138;2023-02-15T13:33:50;30.30;;;16.75;;
37645;SDS011;23489;49.600;6.138;2023-02-15T13:39:16;27.05;;;16.20;;
37645;SDS011;23489;49.600;6.138;2023-02-15T14:01:11;30.40;;;16.35;;
37645;SDS011;23489;49.600;6.138;2023-02-15T14:07:03;28.50;;;16.98;;
37645;SDS011;23489;49.600;6.138;2023-02-15T14:12:50;30.02;;;16.42;;
37645;SDS011;23489;49.600;6.138;2023-02-15T14:18:12;29.42;;;16.38;;
37645;SDS011;23489;49.600;6.138;2023-02-15T14:21:03;29.33;;;16.23;;
37645;SDS011;23489;49.600;6.138;2023-02-15T14:26:32;28.30;;;19.58;;
37645;SDS011;23489;49.600;6.138;2023-02-15T14:29:08;27.17;;;16.73;;
37645;SDS011;23489;49.600;6.138;2023-02-15T14:31:50;31.02;;;17.05;;
37645;SDS011;23489;49.600;6.138;2023-02-15T14:34:24;27.38;;;16.27;;
37645;SDS011;23489;49.600;6.138;2023-02-15T14:36:56;27.73;;;16.10;;
37645;SDS011;23489;49.600;6.138;2023-02-15T14:39:36;27.05;;;15.43;;
37645;SDS011;23489;49.600;6.138;2023-02-15T14:45:17;27.33;;;16.70;;
37645;SDS011;23489;49.600;6.138;2023-02-15T14:47:55;28.67;;;16.05;;
37645;SDS011;23489;49.600;6.138;2023-02-15T14:50:37;29.42;;;16.27;;
37645;SDS011;23489;49.600;6.138;2023-02-15T14:58:39;31.02;;;16.48;;
37645;SDS011;23489;49.600;6.138;2023-02-15T15:01:39;28.77;;;15.80;;
37645;SDS011;23489;49.600;6.138;2023-02-15T15:04:06;26.58;;;16.70;;
37645;SDS011;23489;49.600;6.138;2023-02-15T15:06:37;27.52;;;16.67;;
37645;SDS011;23489;49.600;6.138;2023-02-15T15:09:11;27.98;;;16.42;;
37645;SDS011;23489;49.600;6.138;2023-02-15T15:11:50;25.45;;;15.23;;
37645;SDS011;23489;49.600;6.138;2023-02-15T15:16:59;31.27;;;16.88;;
37645;SDS011;23489;49.600;6.138;2023-02-15T15:22:44;26.42;;;16.33;;
37645;SDS011;23489;49.600;6.138;2023-02-15T15:25:04;29.08;;;16.67;;
37645;SDS011;23489;49.600;6.138;2023-02-15T15:27:56;27.38;;;16.10;;
37645;SDS011;23489;49.600;6.138;2023-02-15T15:38:29;25.88;;;15.43;;
37645;SDS011;23489;49.600;6.138;2023-02-15T15:41:22;28.58;;;16.58;;
37645;SDS011;23489;49.600;6.138;2023-02-15T15:47:33;26.45;;;16.25;;
37645;SDS011;23489;49.600;6.138;2023-02-15T15:50:19;26.27;;;16.70;;
37645;SDS011;23489;49.600;6.138;2023-02-15T15:52:53;26.08;;;16.02;;
37645;SDS011;23489;49.600;6.138;2023-02-15T15:55:21;26.80;;;16.30;;
37645;SDS011;23489;49.600;6.138;2023-02-15T15:57:53;29.23;;;16.65;;
37645;SDS011;23489;49.600;6.138;2023-02-15T16:00:37;29.25;;;16.88;;
37645;SDS011;23489;49.600;6.138;2023-02-15T16:06:13;26.73;;;16.13;;
37645;SDS011;23489;49.600;6.138;2023-02-15T16:08:39;28.88;;;16.88;;
37645;SDS011;23489;49.600;6.138;2023-02-15T16:11:16;29.10;;;17.40;;
37645;SDS011;23489;49.600;6.138;2023-02-15T16:13:47;32.17;;;18.17;;
37645;SDS011;23489;49.600;6.138;2023-02-15T16:16:13;29.73;;;18.08;;
37645;SDS011;23489;49.600;6.138;2023-02-15T16:18:49;27.85;;;17.05;;
37645;SDS011;23489;49.600;6.138;2023-02-15T16:21:21;33.20;;;18.13;;
37645;SDS011;23489;49.600;6.138;2023-02-15T16:23:57;32.25;;;18.30;;
37645;SDS011;23489;49.600;6.138;2023-02-15T16:29:13;28.35;;;16.80;;
37645;SDS011;23489;49.600;6.138;2023-02-15T16:31:56;25.52;;;15.95;;
37645;SDS011;23489;49.600;6.138;2023-02-15T16:34:26;27.88;;;16.98;;
37645;SDS011;23489;49.600;6.138;2023-02-15T16:37:11;28.77;;;17.30;;
37645;SDS011;23489;49.600;6.138;2023-02-15T16:39:42;34.17;;;17.73;;
37645;SDS011;23489;49.600;6.138;2023-02-15T16:42:08;31.27;;;18.02;;
37645;SDS011;23489;49.600;6.138;2023-02-15T16:44:36;31.98;;;17.85;;
37645;SDS011;23489;49.600;6.138;2023-02-15T16:47:02;28.30;;;17.10;;
37645;SDS011;23489;49.600;6.138;2023-02-15T16:49:28;31.00;;;17.50;;
37645;SDS011;23489;49.600;6.138;2023-02-15T16:52:00;37.28;;;18.35;;
37645;SDS011;23489;49.600;6.138;2023-02-15T16:54:31;32.33;;;17.27;;
37645;SDS011;23489;49.600;6.138;2023-02-15T16:56:57;31.40;;;17.83;;
37645;SDS011;23489;49.600;6.138;2023-02-15T17:01:54;32.85;;;17.48;;
37645;SDS011;23489;49.600;6.138;2023-02-15T17:07:13;29.83;;;18.20;;
37645;SDS011;23489;49.600;6.138;2023-02-15T17:09:48;30.52;;;17.52;;
37645;SDS011;23489;49.600;6.138;2023-02-15T17:15:33;30.77;;;18.00;;
37645;SDS011;23489;49.600;6.138;2023-02-15T17:18:04;32.28;;;17.65;;
37645;SDS011;23489;49.600;6.138;2023-02-15T17:20:35;29.58;;;16.65;;
37645;SDS011;23489;49.600;6.138;2023-02-15T17:23:04;32.72;;;17.45;;
37645;SDS011;23489;49.600;6.138;2023-02-15T17:25:39;35.78;;;19.08;;
37645;SDS011;23489;49.600;6.138;2023-02-15T17:28:15;30.45;;;17.67;;
37645;SDS011;23489;49.600;6.138;2023-02-15T17:30:43;34.90;;;18.40;;
37645;SDS011;23489;49.600;6.138;2023-02-15T17:33:35;26.45;;;16.75;;
37645;SDS011;23489;49.600;6.138;2023-02-15T17:36:09;31.60;;;18.08;;
37645;SDS011;23489;49.600;6.138;2023-02-15T17:38:39;33.72;;;18.92;;